Ana Sayfa
METAR-TAF:

METAR-TAF

Havaalanları :

St. Francis, Kansas, Amerika Birleşik Devletleri

Enlem: 39-45-40N, Boylam: 101-47-45W, yükseklik: 1040 m

Güncel hava durumu gözlemi

Rapor saat 03:35 UTC de 24 dakika önce yapıldı.
Rüzgar kuzey/kuzeydoğudan 22 kt ve 29 kt'a kadar ani rüzgarlar
Sıcaklık 16°C
Nem 51%
Basınç 1012 hPa
Görüş mesafesi: 16.1 km
Açık gökyüzü

METAR: KSYF 180335Z AUTO 03022G29KT 10SM CLR 16/06 A2988 RMK AO2 T01570055 PWINO

Saat: 22:59 (03:59 UTC)


TAF: eksik

4.000'den fazla havaalanı için hava durumu gözlemleri ve tahminleri (METAR ve TAF raporları).

Kullanılabilir istasyonlar harita üzerinde sarı ve kırmızı noktalarla gösterilir.

İstasyonun adını görmek için fareyi noktanın üzerinde gezdirin.

Sonrasında hava gözlem ve tahminlerini görmek için tıklayın.

Haritayı değiştirmek için: yaklaştırmak için siyah artı işaretli yeşil düğmeye ve uzaklaştırmak için de eksi işaretli düğmeye hızla tıklayın; bitişik haritalar için yeşil okları kullanın.


METAR-TAF: